sensor_id;sensor_type;location;lat;lon;timestamp;pressure;altitude;pressure_sealevel;temperature;humidity
14393;BME280;7281;42.678;23.372;2023-03-26T00:02:14;94620.09;;;14.97;45.14
14393;BME280;7281;42.678;23.372;2023-03-26T00:04:41;94615.66;;;15.39;43.95
14393;BME280;7281;42.678;23.372;2023-03-26T00:07:08;94614.28;;;15.60;43.82
14393;BME280;7281;42.678;23.372;2023-03-26T00:09:35;94620.81;;;14.84;45.48
14393;BME280;7281;42.678;23.372;2023-03-26T00:12:02;94623.28;;;14.94;44.54
14393;BME280;7281;42.678;23.372;2023-03-26T00:14:29;94611.69;;;14.95;45.47
14393;BME280;7281;42.678;23.372;2023-03-26T00:16:58;94616.13;;;14.81;44.37
14393;BME280;7281;42.678;23.372;2023-03-26T00:19:24;94605.41;;;14.91;44.99
14393;BME280;7281;42.678;23.372;2023-03-26T00:21:51;94603.84;;;14.40;45.95
14393;BME280;7281;42.678;23.372;2023-03-26T00:24:18;94589.81;;;15.08;45.23
14393;BME280;7281;42.678;23.372;2023-03-26T00:26:45;94592.31;;;15.00;44.42
14393;BME280;7281;42.678;23.372;2023-03-26T00:29:19;94586.16;;;14.59;45.17
14393;BME280;7281;42.678;23.372;2023-03-26T00:31:46;94588.13;;;14.11;46.28
14393;BME280;7281;42.678;23.372;2023-03-26T00:34:13;94594.06;;;14.40;45.98
14393;BME280;7281;42.678;23.372;2023-03-26T00:36:41;94595.78;;;14.31;45.82
14393;BME280;7281;42.678;23.372;2023-03-26T00:39:09;94584.53;;;14.44;45.81
14393;BME280;7281;42.678;23.372;2023-03-26T00:41:36;94590.38;;;14.41;46.43
14393;BME280;7281;42.678;23.372;2023-03-26T00:44:08;94594.06;;;14.40;45.74
14393;BME280;7281;42.678;23.372;2023-03-26T00:46:35;94587.28;;;15.03;44.46
14393;BME280;7281;42.678;23.372;2023-03-26T00:49:02;94584.59;;;14.90;44.23
14393;BME280;7281;42.678;23.372;2023-03-26T00:51:30;94591.91;;;15.25;43.83
14393;BME280;7281;42.678;23.372;2023-03-26T00:53:57;94583.56;;;15.04;44.15
14393;BME280;7281;42.678;23.372;2023-03-26T00:56:24;94576.78;;;15.44;43.29
14393;BME280;7281;42.678;23.372;2023-03-26T00:58:51;94585.25;;;15.27;43.61
14393;BME280;7281;42.678;23.372;2023-03-26T01:01:20;94577.81;;;15.30;43.55
14393;BME280;7281;42.678;23.372;2023-03-26T01:03:57;94574.50;;;15.38;43.40
14393;BME280;7281;42.678;23.372;2023-03-26T01:06:35;94584.00;;;14.61;44.46
14393;BME280;7281;42.678;23.372;2023-03-26T01:09:12;94581.06;;;14.62;44.02
14393;BME280;7281;42.678;23.372;2023-03-26T01:11:41;94582.69;;;14.77;43.78
14393;BME280;7281;42.678;23.372;2023-03-26T01:14:09;94588.63;;;15.01;42.83
14393;BME280;7281;42.678;23.372;2023-03-26T01:16:43;94587.56;;;14.51;44.62
14393;BME280;7281;42.678;23.372;2023-03-26T01:19:18;94592.44;;;14.76;43.81
14393;BME280;7281;42.678;23.372;2023-03-26T01:21:48;94599.03;;;15.24;42.61
14393;BME280;7281;42.678;23.372;2023-03-26T01:24:14;94595.22;;;14.85;43.39
14393;BME280;7281;42.678;23.372;2023-03-26T01:26:45;94597.16;;;14.79;43.41
14393;BME280;7281;42.678;23.372;2023-03-26T01:29:19;94608.72;;;14.83;43.90
14393;BME280;7281;42.678;23.372;2023-03-26T01:37:00;94615.53;;;14.84;43.79
14393;BME280;7281;42.678;23.372;2023-03-26T01:42:01;94618.38;;;14.88;43.96
14393;BME280;7281;42.678;23.372;2023-03-26T01:47:06;94619.63;;;14.58;44.58
14393;BME280;7281;42.678;23.372;2023-03-26T01:49:34;94617.44;;;14.97;43.66
14393;BME280;7281;42.678;23.372;2023-03-26T01:52:04;94624.38;;;14.93;44.68
14393;BME280;7281;42.678;23.372;2023-03-26T01:54:31;94622.22;;;14.95;44.49
14393;BME280;7281;42.678;23.372;2023-03-26T01:57:10;94625.81;;;14.86;44.96
14393;BME280;7281;42.678;23.372;2023-03-26T02:02:20;94613.66;;;15.03;44.24
14393;BME280;7281;42.678;23.372;2023-03-26T02:05:14;94617.94;;;14.99;44.67
14393;BME280;7281;42.678;23.372;2023-03-26T02:07:47;94619.81;;;14.80;45.21
14393;BME280;7281;42.678;23.372;2023-03-26T02:10:25;94620.59;;;14.25;46.22
14393;BME280;7281;42.678;23.372;2023-03-26T02:12:53;94621.63;;;14.98;44.32
14393;BME280;7281;42.678;23.372;2023-03-26T02:15:20;94623.13;;;14.35;45.62
14393;BME280;7281;42.678;23.372;2023-03-26T02:17:47;94618.88;;;14.90;45.19
14393;BME280;7281;42.678;23.372;2023-03-26T02:20:15;94629.97;;;14.73;45.07
14393;BME280;7281;42.678;23.372;2023-03-26T02:22:44;94625.84;;;14.30;46.49
14393;BME280;7281;42.678;23.372;2023-03-26T02:25:19;94630.53;;;14.33;45.76
14393;BME280;7281;42.678;23.372;2023-03-26T02:27:48;94613.00;;;14.42;45.94
14393;BME280;7281;42.678;23.372;2023-03-26T02:30:17;94616.88;;;14.31;46.40
14393;BME280;7281;42.678;23.372;2023-03-26T02:32:47;94622.50;;;14.01;47.33
14393;BME280;7281;42.678;23.372;2023-03-26T02:35:19;94623.13;;;13.93;47.08
14393;BME280;7281;42.678;23.372;2023-03-26T02:37:51;94620.66;;;14.20;46.79
14393;BME280;7281;42.678;23.372;2023-03-26T02:40:20;94630.03;;;13.89;47.57
14393;BME280;7281;42.678;23.372;2023-03-26T02:42:49;94633.47;;;14.08;47.12
14393;BME280;7281;42.678;23.372;2023-03-26T02:45:16;94621.28;;;14.36;46.23
14393;BME280;7281;42.678;23.372;2023-03-26T02:47:48;94620.75;;;14.15;46.77
14393;BME280;7281;42.678;23.372;2023-03-26T02:50:40;94623.25;;;14.06;46.61
14393;BME280;7281;42.678;23.372;2023-03-26T02:53:34;94632.47;;;14.46;46.17
14393;BME280;7281;42.678;23.372;2023-03-26T02:56:35;94642.31;;;14.17;46.55
14393;BME280;7281;42.678;23.372;2023-03-26T02:59:20;94651.16;;;14.26;46.36
14393;BME280;7281;42.678;23.372;2023-03-26T03:02:00;94648.22;;;14.09;47.61
14393;BME280;7281;42.678;23.372;2023-03-26T03:04:30;94649.59;;;13.83;47.84
14393;BME280;7281;42.678;23.372;2023-03-26T03:06:57;94659.03;;;14.07;47.11
14393;BME280;7281;42.678;23.372;2023-03-26T03:09:25;94663.41;;;14.17;47.62
14393;BME280;7281;42.678;23.372;2023-03-26T03:12:10;94653.50;;;13.62;48.20
14393;BME280;7281;42.678;23.372;2023-03-26T03:14:37;94655.59;;;13.88;47.28
14393;BME280;7281;42.678;23.372;2023-03-26T03:17:04;94657.22;;;13.84;48.04
14393;BME280;7281;42.678;23.372;2023-03-26T03:19:31;94662.13;;;13.91;47.85
14393;BME280;7281;42.678;23.372;2023-03-26T03:21:57;94668.69;;;13.70;48.34
14393;BME280;7281;42.678;23.372;2023-03-26T03:24:24;94672.13;;;13.42;48.35
14393;BME280;7281;42.678;23.372;2023-03-26T03:26:52;94672.84;;;13.76;47.57
14393;BME280;7281;42.678;23.372;2023-03-26T03:29:31;94683.28;;;13.86;46.95
14393;BME280;7281;42.678;23.372;2023-03-26T03:32:18;94676.59;;;13.70;47.58
14393;BME280;7281;42.678;23.372;2023-03-26T03:34:47;94685.59;;;13.06;48.83
14393;BME280;7281;42.678;23.372;2023-03-26T03:37:17;94689.31;;;13.00;48.95
14393;BME280;7281;42.678;23.372;2023-03-26T03:39:50;94672.84;;;13.76;47.64
14393;BME280;7281;42.678;23.372;2023-03-26T03:42:19;94678.34;;;13.79;47.45
14393;BME280;7281;42.678;23.372;2023-03-26T03:44:48;94673.84;;;14.03;46.93
14393;BME280;7281;42.678;23.372;2023-03-26T03:47:38;94675.84;;;14.11;46.69
14393;BME280;7281;42.678;23.372;2023-03-26T03:50:06;94679.16;;;13.23;48.25
14393;BME280;7281;42.678;23.372;2023-03-26T03:52:33;94675.72;;;13.51;48.03
14393;BME280;7281;42.678;23.372;2023-03-26T03:55:00;94681.34;;;13.68;47.24
14393;BME280;7281;42.678;23.372;2023-03-26T03:57:50;94676.69;;;13.60;47.64
14393;BME280;7281;42.678;23.372;2023-03-26T04:00:21;94677.41;;;13.42;48.06
14393;BME280;7281;42.678;23.372;2023-03-26T04:03:03;94681.44;;;13.58;47.90
14393;BME280;7281;42.678;23.372;2023-03-26T04:05:32;94691.47;;;12.93;49.29
14393;BME280;7281;42.678;23.372;2023-03-26T04:07:59;94688.75;;;13.66;48.11
14393;BME280;7281;42.678;23.372;2023-03-26T04:10:49;94691.44;;;14.08;47.09
14393;BME280;7281;42.678;23.372;2023-03-26T04:13:36;94698.72;;;13.69;47.73
14393;BME280;7281;42.678;23.372;2023-03-26T04:16:23;94704.34;;;14.09;46.49
14393;BME280;7281;42.678;23.372;2023-03-26T04:18:50;94708.94;;;13.99;46.58
14393;BME280;7281;42.678;23.372;2023-03-26T04:21:17;94716.00;;;14.27;46.09
14393;BME280;7281;42.678;23.372;2023-03-26T04:23:44;94733.47;;;13.94;46.96
14393;BME280;7281;42.678;23.372;2023-03-26T04:26:37;94742.09;;;14.23;46.91
14393;BME280;7281;42.678;23.372;2023-03-26T04:29:14;94750.63;;;14.63;45.70
14393;BME280;7281;42.678;23.372;2023-03-26T04:31:43;94748.13;;;14.71;45.65
14393;BME280;7281;42.678;23.372;2023-03-26T04:34:21;94758.50;;;14.44;46.49
14393;BME280;7281;42.678;23.372;2023-03-26T04:37:33;94764.91;;;14.38;46.06
14393;BME280;7281;42.678;23.372;2023-03-26T04:40:20;94760.31;;;14.49;46.54
14393;BME280;7281;42.678;23.372;2023-03-26T04:43:11;94768.91;;;14.36;46.34
14393;BME280;7281;42.678;23.372;2023-03-26T04:46:10;94772.75;;;14.67;45.64
14393;BME280;7281;42.678;23.372;2023-03-26T04:48:49;94768.09;;;14.59;46.12
14393;BME280;7281;42.678;23.372;2023-03-26T04:51:16;94767.94;;;14.50;45.85
14393;BME280;7281;42.678;23.372;2023-03-26T04:53:52;94765.88;;;14.66;45.00
14393;BME280;7281;42.678;23.372;2023-03-26T04:59:24;94772.69;;;14.01;45.81
14393;BME280;7281;42.678;23.372;2023-03-26T05:01:56;94775.63;;;14.18;45.83
14393;BME280;7281;42.678;23.372;2023-03-26T05:04:27;94769.25;;;14.00;45.65
14393;BME280;7281;42.678;23.372;2023-03-26T05:07:00;94761.63;;;13.99;45.64
14393;BME280;7281;42.678;23.372;2023-03-26T05:09:40;94761.69;;;13.94;45.83
14393;BME280;7281;42.678;23.372;2023-03-26T05:12:28;94773.19;;;13.74;46.23
14393;BME280;7281;42.678;23.372;2023-03-26T05:15:02;94772.25;;;13.89;46.13
14393;BME280;7281;42.678;23.372;2023-03-26T05:17:53;94781.09;;;14.03;45.07
14393;BME280;7281;42.678;23.372;2023-03-26T05:20:38;94789.88;;;13.65;46.50
14393;BME280;7281;42.678;23.372;2023-03-26T05:23:07;94788.72;;;13.42;46.80
14393;BME280;7281;42.678;23.372;2023-03-26T05:25:36;94788.16;;;13.50;45.95
14393;BME280;7281;42.678;23.372;2023-03-26T05:28:10;94800.44;;;13.60;46.00
14393;BME280;7281;42.678;23.372;2023-03-26T05:30:45;94801.31;;;13.50;46.74
14393;BME280;7281;42.678;23.372;2023-03-26T05:33:12;94794.59;;;14.20;44.80
14393;BME280;7281;42.678;23.372;2023-03-26T05:35:56;94789.69;;;14.37;44.99
14393;BME280;7281;42.678;23.372;2023-03-26T05:38:24;94796.13;;;13.69;46.35
14393;BME280;7281;42.678;23.372;2023-03-26T05:40:51;94790.63;;;13.70;46.26
14393;BME280;7281;42.678;23.372;2023-03-26T05:43:22;94789.44;;;14.10;45.80
14393;BME280;7281;42.678;23.372;2023-03-26T05:46:15;94798.41;;;13.47;47.10
14393;BME280;7281;42.678;23.372;2023-03-26T05:48:43;94797.09;;;13.78;46.52
14393;BME280;7281;42.678;23.372;2023-03-26T05:51:10;94806.47;;;13.94;46.25
14393;BME280;7281;42.678;23.372;2023-03-26T05:53:41;94814.56;;;13.69;46.72
14393;BME280;7281;42.678;23.372;2023-03-26T05:56:27;94815.88;;;14.00;46.36
14393;BME280;7281;42.678;23.372;2023-03-26T05:59:16;94813.81;;;13.97;46.37
14393;BME280;7281;42.678;23.372;2023-03-26T06:02:01;94804.78;;;14.03;46.00
14393;BME280;7281;42.678;23.372;2023-03-26T06:04:40;94794.47;;;13.78;46.73
14393;BME280;7281;42.678;23.372;2023-03-26T06:07:46;94793.03;;;13.62;46.79
14393;BME280;7281;42.678;23.372;2023-03-26T06:10:17;94785.72;;;14.11;45.46
14393;BME280;7281;42.678;23.372;2023-03-26T06:12:45;94789.06;;;14.45;44.90
14393;BME280;7281;42.678;23.372;2023-03-26T06:15:12;94784.19;;;14.57;44.47
14393;BME280;7281;42.678;23.372;2023-03-26T06:17:59;94784.22;;;14.94;44.27
14393;BME280;7281;42.678;23.372;2023-03-26T06:20:45;94787.22;;;14.88;43.68
14393;BME280;7281;42.678;23.372;2023-03-26T06:23:20;94790.97;;;14.82;43.83
14393;BME280;7281;42.678;23.372;2023-03-26T06:26:08;94789.94;;;15.01;43.51
14393;BME280;7281;42.678;23.372;2023-03-26T06:29:00;94792.03;;;14.62;43.07
14393;BME280;7281;42.678;23.372;2023-03-26T06:31:42;94788.56;;;14.85;42.94
14393;BME280;7281;42.678;23.372;2023-03-26T06:34:17;94787.75;;;15.08;42.64
14393;BME280;7281;42.678;23.372;2023-03-26T06:36:44;94785.25;;;15.54;42.16
14393;BME280;7281;42.678;23.372;2023-03-26T06:39:11;94785.53;;;15.15;42.53
14393;BME280;7281;42.678;23.372;2023-03-26T06:41:45;94786.84;;;15.69;41.90
14393;BME280;7281;42.678;23.372;2023-03-26T06:44:32;94790.00;;;15.71;42.17
14393;BME280;7281;42.678;23.372;2023-03-26T06:47:19;94787.06;;;15.86;41.62
14393;BME280;7281;42.678;23.372;2023-03-26T06:49:46;94798.13;;;15.74;41.34
14393;BME280;7281;42.678;23.372;2023-03-26T06:52:30;94796.81;;;15.72;41.15
14393;BME280;7281;42.678;23.372;2023-03-26T06:55:02;94804.66;;;16.09;40.33
14393;BME280;7281;42.678;23.372;2023-03-26T06:57:48;94802.31;;;16.07;40.47
14393;BME280;7281;42.678;23.372;2023-03-26T07:00:41;94804.25;;;16.02;40.51
14393;BME280;7281;42.678;23.372;2023-03-26T07:03:26;94808.22;;;16.45;40.85
14393;BME280;7281;42.678;23.372;2023-03-26T07:06:12;94816.13;;;16.18;42.42
14393;BME280;7281;42.678;23.372;2023-03-26T07:09:05;94820.50;;;16.09;40.18
14393;BME280;7281;42.678;23.372;2023-03-26T07:11:50;94815.03;;;15.55;40.45
14393;BME280;7281;42.678;23.372;2023-03-26T07:14:49;94813.41;;;15.59;39.91
14393;BME280;7281;42.678;23.372;2023-03-26T07:17:25;94813.16;;;15.74;39.72
14393;BME280;7281;42.678;23.372;2023-03-26T07:19:58;94813.97;;;16.20;39.23
14393;BME280;7281;42.678;23.372;2023-03-26T07:22:26;94803.25;;;15.98;39.54
14393;BME280;7281;42.678;23.372;2023-03-26T07:25:14;94799.94;;;16.06;38.99
14393;BME280;7281;42.678;23.372;2023-03-26T07:45:25;94798.72;;;15.85;39.17
14393;BME280;7281;42.678;23.372;2023-03-26T07:48:20;94790.34;;;16.10;37.95
14393;BME280;7281;42.678;23.372;2023-03-26T07:51:13;94793.88;;;16.05;37.76
14393;BME280;7281;42.678;23.372;2023-03-26T07:54:07;94796.03;;;16.17;37.42
14393;BME280;7281;42.678;23.372;2023-03-26T07:56:41;94799.56;;;16.26;37.04
14393;BME280;7281;42.678;23.372;2023-03-26T08:02:41;94792.69;;;15.98;37.79
14393;BME280;7281;42.678;23.372;2023-03-26T08:09:37;94789.91;;;16.89;35.82
14393;BME280;7281;42.678;23.372;2023-03-26T08:12:08;94775.09;;;17.60;35.23
14393;BME280;7281;42.678;23.372;2023-03-26T08:14:43;94770.38;;;18.01;35.33
14393;BME280;7281;42.678;23.372;2023-03-26T08:17:14;94775.22;;;17.77;34.99
14393;BME280;7281;42.678;23.372;2023-03-26T08:20:29;94775.06;;;18.04;34.40
14393;BME280;7281;42.678;23.372;2023-03-26T08:22:33;94776.88;;;18.26;33.30
14393;BME280;7281;42.678;23.372;2023-03-26T08:27:39;94783.47;;;18.06;32.50
14393;BME280;7281;42.678;23.372;2023-03-26T08:30:08;94782.53;;;18.02;32.05
14393;BME280;7281;42.678;23.372;2023-03-26T08:32:36;94791.00;;;18.12;31.42
14393;BME280;7281;42.678;23.372;2023-03-26T08:35:03;94774.84;;;18.62;31.54
14393;BME280;7281;42.678;23.372;2023-03-26T08:37:30;94783.75;;;18.66;31.56
14393;BME280;7281;42.678;23.372;2023-03-26T08:39:57;94786.84;;;17.98;31.16
14393;BME280;7281;42.678;23.372;2023-03-26T08:42:28;94786.84;;;17.98;31.44
14393;BME280;7281;42.678;23.372;2023-03-26T08:47:49;94774.84;;;18.31;32.10
14393;BME280;7281;42.678;23.372;2023-03-26T08:58:39;94771.94;;;18.41;30.97
14393;BME280;7281;42.678;23.372;2023-03-26T09:09:38;94773.16;;;18.74;29.89
14393;BME280;7281;42.678;23.372;2023-03-26T09:38:57;94735.88;;;19.65;27.84
14393;BME280;7281;42.678;23.372;2023-03-26T09:41:31;94735.59;;;19.58;26.40
14393;BME280;7281;42.678;23.372;2023-03-26T09:44:07;94742.63;;;19.54;27.50
14393;BME280;7281;42.678;23.372;2023-03-26T09:49:25;94729.44;;;19.83;26.46
14393;BME280;7281;42.678;23.372;2023-03-26T10:00:02;94720.72;;;18.88;27.97
14393;BME280;7281;42.678;23.372;2023-03-26T10:08:14;94708.06;;;18.85;28.03
14393;BME280;7281;42.678;23.372;2023-03-26T10:11:06;94705.50;;;18.46;28.67
14393;BME280;7281;42.678;23.372;2023-03-26T10:21:20;94686.66;;;21.34;26.17
14393;BME280;7281;42.678;23.372;2023-03-26T10:50:48;94642.22;;;20.64;25.06
14393;BME280;7281;42.678;23.372;2023-03-26T10:56:22;94636.75;;;20.60;24.54
14393;BME280;7281;42.678;23.372;2023-03-26T10:58:51;94622.88;;;21.17;24.05
14393;BME280;7281;42.678;23.372;2023-03-26T11:03:58;94625.28;;;20.89;24.14
14393;BME280;7281;42.678;23.372;2023-03-26T11:06:29;94617.91;;;21.27;22.91
14393;BME280;7281;42.678;23.372;2023-03-26T11:32:53;94590.59;;;22.23;21.36
14393;BME280;7281;42.678;23.372;2023-03-26T11:35:34;94588.06;;;22.66;22.27
14393;BME280;7281;42.678;23.372;2023-03-26T11:38:49;94586.25;;;21.26;20.71
14393;BME280;7281;42.678;23.372;2023-03-26T11:40:58;94590.94;;;21.41;21.01
14393;BME280;7281;42.678;23.372;2023-03-26T11:43:48;94588.47;;;20.70;22.07
14393;BME280;7281;42.678;23.372;2023-03-26T11:46:19;94579.56;;;21.20;25.85
14393;BME280;7281;42.678;23.372;2023-03-26T11:48:48;94569.44;;;21.58;21.65
14393;BME280;7281;42.678;23.372;2023-03-26T11:51:23;94575.97;;;20.62;21.72
14393;BME280;7281;42.678;23.372;2023-03-26T11:53:52;94565.34;;;21.15;22.51
14393;BME280;7281;42.678;23.372;2023-03-26T11:59:03;94539.25;;;21.09;21.00
14393;BME280;7281;42.678;23.372;2023-03-26T12:01:43;94543.56;;;22.06;21.41
14393;BME280;7281;42.678;23.372;2023-03-26T12:04:24;94528.28;;;21.23;20.82
14393;BME280;7281;42.678;23.372;2023-03-26T12:07:03;94530.66;;;22.08;19.85
14393;BME280;7281;42.678;23.372;2023-03-26T12:09:33;94520.56;;;23.09;19.52
14393;BME280;7281;42.678;23.372;2023-03-26T12:12:02;94512.09;;;22.24;20.30
14393;BME280;7281;42.678;23.372;2023-03-26T12:14:31;94521.91;;;23.31;20.57
14393;BME280;7281;42.678;23.372;2023-03-26T12:17:04;94518.97;;;23.67;20.26
14393;BME280;7281;42.678;23.372;2023-03-26T12:19:35;94508.63;;;23.81;19.95
14393;BME280;7281;42.678;23.372;2023-03-26T12:22:03;94511.06;;;23.55;19.74
14393;BME280;7281;42.678;23.372;2023-03-26T12:24:32;94498.81;;;23.54;18.22
14393;BME280;7281;42.678;23.372;2023-03-26T12:29:51;94487.44;;;24.07;19.06
14393;BME280;7281;42.678;23.372;2023-03-26T12:32:30;94487.00;;;24.40;17.12
14393;BME280;7281;42.678;23.372;2023-03-26T12:35:45;94485.34;;;24.16;17.79
14393;BME280;7281;42.678;23.372;2023-03-26T12:44:22;94463.16;;;23.65;17.62
14393;BME280;7281;42.678;23.372;2023-03-26T12:47:22;94463.94;;;23.66;17.60
14393;BME280;7281;42.678;23.372;2023-03-26T12:50:11;94465.81;;;23.81;16.99
14393;BME280;7281;42.678;23.372;2023-03-26T12:52:58;94445.47;;;24.49;16.56
14393;BME280;7281;42.678;23.372;2023-03-26T13:03:21;94440.91;;;23.96;15.40
14393;BME280;7281;42.678;23.372;2023-03-26T13:05:57;94437.59;;;24.37;16.01
14393;BME280;7281;42.678;23.372;2023-03-26T13:16:12;94438.44;;;25.96;13.86
14393;BME280;7281;42.678;23.372;2023-03-26T13:18:46;94428.75;;;25.17;14.53
14393;BME280;7281;42.678;23.372;2023-03-26T13:29:06;94419.34;;;25.49;15.32
14393;BME280;7281;42.678;23.372;2023-03-26T13:31:46;94432.38;;;24.25;13.96
14393;BME280;7281;42.678;23.372;2023-03-26T13:34:47;94432.94;;;24.15;14.41
14393;BME280;7281;42.678;23.372;2023-03-26T13:37:15;94433.66;;;24.31;14.54
14393;BME280;7281;42.678;23.372;2023-03-26T13:40:10;94421.25;;;24.61;15.61
14393;BME280;7281;42.678;23.372;2023-03-26T13:47:56;94414.47;;;25.84;15.04
14393;BME280;7281;42.678;23.372;2023-03-26T13:50:35;94408.25;;;24.82;14.95
14393;BME280;7281;42.678;23.372;2023-03-26T13:55:40;94406.28;;;25.02;16.42
14393;BME280;7281;42.678;23.372;2023-03-26T14:08:45;94399.28;;;24.94;14.04
14393;BME280;7281;42.678;23.372;2023-03-26T14:11:18;94394.66;;;25.66;14.17
14393;BME280;7281;42.678;23.372;2023-03-26T14:13:48;94384.53;;;25.30;13.52
14393;BME280;7281;42.678;23.372;2023-03-26T14:16:22;94385.63;;;25.02;14.00
14393;BME280;7281;42.678;23.372;2023-03-26T14:50:48;94363.09;;;25.82;14.67
14393;BME280;7281;42.678;23.372;2023-03-26T14:53:26;94372.66;;;26.09;14.50
14393;BME280;7281;42.678;23.372;2023-03-26T15:01:47;94368.47;;;25.56;15.51
14393;BME280;7281;42.678;23.372;2023-03-26T15:04:40;94374.84;;;26.00;14.96
14393;BME280;7281;42.678;23.372;2023-03-26T15:15:17;94375.50;;;25.38;14.22
14393;BME280;7281;42.678;23.372;2023-03-26T15:31:02;94389.19;;;24.87;15.01
14393;BME280;7281;42.678;23.372;2023-03-26T15:33:45;94390.66;;;24.24;15.49
14393;BME280;7281;42.678;23.372;2023-03-26T15:41:16;94400.66;;;23.39;15.64
14393;BME280;7281;42.678;23.372;2023-03-26T15:44:06;94395.22;;;23.35;16.35
14393;BME280;7281;42.678;23.372;2023-03-26T15:57:14;94395.91;;;22.70;17.65
14393;BME280;7281;42.678;23.372;2023-03-26T15:59:48;94396.16;;;22.80;16.66
14393;BME280;7281;42.678;23.372;2023-03-26T16:04:54;94394.84;;;22.74;17.17
14393;BME280;7281;42.678;23.372;2023-03-26T16:23:02;94398.22;;;22.16;18.16
14393;BME280;7281;42.678;23.372;2023-03-26T16:25:32;94409.78;;;22.20;18.35
14393;BME280;7281;42.678;23.372;2023-03-26T16:30:36;94410.25;;;22.38;18.14
14393;BME280;7281;42.678;23.372;2023-03-26T16:33:13;94405.63;;;22.23;17.91
14393;BME280;7281;42.678;23.372;2023-03-26T16:36:25;94409.09;;;22.23;17.97
14393;BME280;7281;42.678;23.372;2023-03-26T16:41:18;94418.03;;;22.15;18.37
14393;BME280;7281;42.678;23.372;2023-03-26T16:48:50;94424.09;;;21.88;19.06
14393;BME280;7281;42.678;23.372;2023-03-26T16:51:41;94414.59;;;22.02;18.91
14393;BME280;7281;42.678;23.372;2023-03-26T16:57:09;94413.94;;;22.05;18.73
14393;BME280;7281;42.678;23.372;2023-03-26T17:08:20;94418.50;;;22.05;18.34
14393;BME280;7281;42.678;23.372;2023-03-26T17:11:18;94415.44;;;21.79;18.62
14393;BME280;7281;42.678;23.372;2023-03-26T17:13:48;94427.69;;;21.80;18.78
14393;BME280;7281;42.678;23.372;2023-03-26T17:16:27;94424.34;;;21.23;19.20
14393;BME280;7281;42.678;23.372;2023-03-26T17:21:46;94427.47;;;21.37;19.30
14393;BME280;7281;42.678;23.372;2023-03-26T17:24:26;94434.13;;;21.18;19.64
14393;BME280;7281;42.678;23.372;2023-03-26T17:32:50;94446.56;;;20.37;20.60
14393;BME280;7281;42.678;23.372;2023-03-26T17:35:12;94441.09;;;20.13;20.79
14393;BME280;7281;42.678;23.372;2023-03-26T17:37:41;94441.50;;;20.03;21.09
14393;BME280;7281;42.678;23.372;2023-03-26T17:40:28;94439.63;;;20.24;21.04
14393;BME280;7281;42.678;23.372;2023-03-26T17:43:05;94441.19;;;20.04;21.51
14393;BME280;7281;42.678;23.372;2023-03-26T17:45:35;94440.63;;;20.20;22.11
14393;BME280;7281;42.678;23.372;2023-03-26T17:48:07;94437.41;;;20.47;21.49
14393;BME280;7281;42.678;23.372;2023-03-26T17:50:40;94429.91;;;20.61;22.31
14393;BME280;7281;42.678;23.372;2023-03-26T17:55:38;94436.06;;;20.20;22.13
14393;BME280;7281;42.678;23.372;2023-03-26T17:58:52;94431.31;;;20.05;22.42
14393;BME280;7281;42.678;23.372;2023-03-26T18:01:00;94435.13;;;19.75;22.87
14393;BME280;7281;42.678;23.372;2023-03-26T18:03:31;94430.03;;;19.41;23.48
14393;BME280;7281;42.678;23.372;2023-03-26T18:06:10;94438.25;;;19.18;23.88
14393;BME280;7281;42.678;23.372;2023-03-26T18:11:40;94435.81;;;18.96;24.20
14393;BME280;7281;42.678;23.372;2023-03-26T18:16:44;94429.03;;;18.78;24.76
14393;BME280;7281;42.678;23.372;2023-03-26T18:19:14;94438.38;;;19.22;24.30
14393;BME280;7281;42.678;23.372;2023-03-26T18:21:45;94422.13;;;19.53;23.77
14393;BME280;7281;42.678;23.372;2023-03-26T18:27:12;94433.63;;;18.98;24.32
14393;BME280;7281;42.678;23.372;2023-03-26T18:29:44;94430.19;;;19.06;24.43
14393;BME280;7281;42.678;23.372;2023-03-26T18:34:44;94425.41;;;19.20;24.05
14393;BME280;7281;42.678;23.372;2023-03-26T18:37:16;94422.69;;;19.00;24.04
14393;BME280;7281;42.678;23.372;2023-03-26T18:39:59;94417.16;;;18.84;24.52
14393;BME280;7281;42.678;23.372;2023-03-26T18:42:29;94409.50;;;18.83;24.48
14393;BME280;7281;42.678;23.372;2023-03-26T18:44:58;94407.22;;;18.64;24.30
14393;BME280;7281;42.678;23.372;2023-03-26T18:47:28;94408.25;;;18.80;23.90
14393;BME280;7281;42.678;23.372;2023-03-26T18:49:55;94411.25;;;18.70;24.25
14393;BME280;7281;42.678;23.372;2023-03-26T18:52:23;94403.75;;;18.72;24.30
14393;BME280;7281;42.678;23.372;2023-03-26T18:54:52;94400.72;;;18.91;24.03
14393;BME280;7281;42.678;23.372;2023-03-26T18:57:21;94393.91;;;18.73;24.46
14393;BME280;7281;42.678;23.372;2023-03-26T18:59:49;94391.63;;;18.54;24.39
14393;BME280;7281;42.678;23.372;2023-03-26T19:02:17;94398.09;;;18.02;24.43
14393;BME280;7281;42.678;23.372;2023-03-26T19:04:44;94392.13;;;18.39;24.31
14393;BME280;7281;42.678;23.372;2023-03-26T19:07:13;94379.38;;;18.70;24.08
14393;BME280;7281;42.678;23.372;2023-03-26T19:09:41;94380.03;;;18.67;24.25
14393;BME280;7281;42.678;23.372;2023-03-26T19:12:16;94383.25;;;18.90;24.02
14393;BME280;7281;42.678;23.372;2023-03-26T19:14:49;94372.09;;;18.96;23.80
14393;BME280;7281;42.678;23.372;2023-03-26T19:17:16;94357.41;;;18.70;23.96
14393;BME280;7281;42.678;23.372;2023-03-26T19:19:43;94354.38;;;18.88;24.32
14393;BME280;7281;42.678;23.372;2023-03-26T19:22:11;94359.47;;;18.93;23.89
14393;BME280;7281;42.678;23.372;2023-03-26T19:24:39;94366.44;;;18.77;24.09
14393;BME280;7281;42.678;23.372;2023-03-26T19:27:06;94364.47;;;18.57;24.18
14393;BME280;7281;42.678;23.372;2023-03-26T19:29:34;94357.03;;;18.25;24.83
14393;BME280;7281;42.678;23.372;2023-03-26T19:32:03;94349.38;;;18.32;24.87
14393;BME280;7281;42.678;23.372;2023-03-26T19:34:31;94354.56;;;18.11;25.37
14393;BME280;7281;42.678;23.372;2023-03-26T19:37:15;94347.34;;;18.46;25.38
14393;BME280;7281;42.678;23.372;2023-03-26T19:39:43;94348.97;;;18.68;24.68
14393;BME280;7281;42.678;23.372;2023-03-26T19:42:14;94342.19;;;18.33;24.55